Time;durP1;ratioP1;P1;durP2;ratioP2;P2;SDS_P1;SDS_P2;PMS_P1;PMS_P2;Temp;Humidity;BMP_temperature;BMP_pressure;BME280_temperature;BME280_humidity;BME280_pressure;Samples;Min_cycle;Max_cycle;Signal;HPM_P1;HPM_P2
2021/07/21 00:00:50;;;;;;;9.13;4.63;;;;;;;17.01;65.43;98438.47;5092364;28;20390;-68
2021/07/21 00:03:16;;;;;;;9.95;4.75;;;;;;;16.98;65.51;98433.72;5092443;28;20071;-67
2021/07/21 00:05:42;;;;;;;7.50;4.60;;;;;;;16.91;65.92;98434.16;5090809;28;20508;-67
2021/07/21 00:08:08;;;;;;;10.38;4.85;;;;;;;16.89;66.04;98433.66;5092071;28;20052;-68
2021/07/21 00:10:35;;;;;;;11.77;4.90;;;;;;;16.86;66.22;98428.13;5092095;28;20409;-67
2021/07/21 00:16:00;;;;;;;6.20;4.30;;;;;;;16.78;66.54;98427.72;5091875;28;20044;-67
2021/07/21 00:20:52;;;;;;;6.13;4.65;;;;;;;16.73;66.85;98430.47;5090790;28;20448;-67
2021/07/21 00:23:19;;;;;;;13.27;4.85;;;;;;;16.72;67.00;98428.13;5092036;28;20048;-68
2021/07/21 00:25:46;;;;;;;14.88;5.10;;;;;;;16.64;66.96;98424.25;5073659;28;20497;-67
2021/07/21 00:28:15;;;;;;;;;;;;;;;16.66;67.29;98434.66;5058704;28;20042;-67
2021/07/21 00:30:42;;;;;;;6.70;4.20;;;;;;;16.62;67.24;98429.13;5091755;28;19924;-67
2021/07/21 00:33:13;;;;;;;8.80;4.35;;;;;;;16.60;67.27;98428.63;5090551;28;20505;-67
2021/07/21 00:35:39;;;;;;;7.07;4.35;;;;;;;16.57;67.45;98421.22;5091823;28;20047;-65
2021/07/21 00:38:05;;;;;;;7.72;4.30;;;;;;;16.54;67.77;98419.13;5073552;28;20052;-67
2021/07/21 00:40:32;;;;;;;7.00;4.20;;;;;;;16.51;67.92;98419.75;5091671;28;20093;-65
2021/07/21 00:42:58;;;;;;;7.75;4.10;;;;;;;16.49;68.13;98428.03;5091743;28;20055;-67
2021/07/21 00:45:24;;;;;;;6.82;4.32;;;;;;;16.53;67.81;98425.56;5091835;28;20067;-66
2021/07/21 00:47:51;;;;;;;7.50;4.13;;;;;;;16.53;67.55;98422.88;5091200;28;20067;-66
2021/07/21 00:50:17;;;;;;;6.47;4.38;;;;;;;16.54;67.39;98417.25;5090338;28;20044;-66
2021/07/21 00:52:44;;;;;;;7.18;3.97;;;;;;;16.56;67.48;98423.09;5073396;28;20527;-67
2021/07/21 00:55:14;;;;;;;6.10;4.15;;;;;;;16.57;66.88;98410.50;5090228;28;20056;-66
2021/07/21 00:57:45;;;;;;;9.02;4.05;;;;;;;16.54;66.85;98398.53;5090017;28;20040;-66
2021/07/21 01:00:18;;;;;;;6.38;3.58;;;;;;;16.63;66.49;98395.13;5073552;28;20050;-67
2021/07/21 01:02:51;;;;;;;6.70;3.95;;;;;;;16.60;66.59;98390.41;5091640;28;20413;-67
2021/07/21 01:05:21;;;;;;;11.75;4.45;;;;;;;16.58;66.26;98396.81;5090090;28;20131;-67
2021/07/21 01:07:51;;;;;;;8.40;4.20;;;;;;;16.57;66.52;98394.47;5090041;28;20079;-68
2021/07/21 01:10:20;;;;;;;11.05;4.85;;;;;;;16.57;66.31;98392.56;5092677;28;20490;-67
2021/07/21 01:13:12;;;;;;;8.88;4.70;;;;;;;16.50;66.94;98397.56;5095313;28;20383;-67
2021/07/21 01:16:04;;;;;;;7.18;4.15;;;;;;;16.48;67.15;98404.28;5049578;28;20474;-66
2021/07/21 01:18:38;;;;;;;9.27;4.45;;;;;;;16.42;67.08;98398.25;5077900;28;20048;-67
2021/07/21 01:21:14;;;;;;;9.70;5.57;;;;;;;16.38;67.46;98391.91;5094056;28;20409;-67
2021/07/21 01:23:48;;;;;;;9.73;5.15;;;;;;;16.35;67.57;98392.50;5077238;28;20044;-69
2021/07/21 01:26:59;;;;;;;12.55;5.05;;;;;;;16.36;67.67;98386.06;5094091;28;20543;-67
2021/07/21 01:29:27;;;;;;;10.15;4.85;;;;;;;16.44;67.48;98389.91;5079725;28;20047;-68
2021/07/21 01:31:55;;;;;;;19.35;5.90;;;;;;;16.47;67.42;98386.63;5094026;28;20043;-68
2021/07/21 01:34:26;;;;;;;10.95;5.88;;;;;;;16.47;67.31;98386.63;5076933;28;20044;-68
2021/07/21 01:36:54;;;;;;;17.77;8.40;;;;;;;16.50;67.38;98384.19;5077037;28;20079;-67
2021/07/21 01:39:26;;;;;;;19.45;9.18;;;;;;;16.57;67.37;98379.19;5093986;28;20046;-68
2021/07/21 01:41:56;;;;;;;12.15;6.97;;;;;;;16.76;66.66;98378.28;5093554;28;20044;-68
2021/07/21 01:44:26;;;;;;;15.52;6.72;;;;;;;16.94;65.93;98374.66;5060440;28;20390;-69
2021/07/21 01:46:56;;;;;;;13.23;5.80;;;;;;;17.17;64.88;98366.59;5076833;28;20060;-69
2021/07/21 01:49:27;;;;;;;17.10;7.22;;;;;;;17.36;64.64;98358.38;5076735;28;20055;-68
2021/07/21 01:52:06;;;;;;;14.68;8.00;;;;;;;17.64;63.44;98361.66;5077295;28;20087;-68
2021/07/21 01:54:32;;;;;;;12.48;5.85;;;;;;;17.89;62.66;98370.97;5076650;28;20114;-68
2021/07/21 01:57:12;;;;;;;9.75;5.00;;;;;;;18.08;61.70;98376.84;5061646;28;20083;-69
2021/07/21 01:59:50;;;;;;;14.35;5.90;;;;;;;18.32;61.08;98372.94;5093382;28;20052;-68
2021/07/21 02:02:50;;;;;;;17.83;5.45;;;;;;;18.60;60.15;98378.84;5071523;28;20134;-67
2021/07/21 02:05:23;;;;;;;8.77;4.80;;;;;;;18.84;59.21;98381.09;5071621;28;20089;-68
2021/07/21 02:07:51;;;;;;;8.35;4.45;;;;;;;19.14;58.00;98384.69;5054893;28;20048;-67
2021/07/21 02:10:20;;;;;;;11.32;4.90;;;;;;;19.44;57.37;98382.09;5054841;28;20055;-68
2021/07/21 02:12:59;;;;;;;8.45;4.57;;;;;;;19.71;56.57;98383.66;5071279;28;20056;-68
2021/07/21 02:15:27;;;;;;;8.45;4.43;;;;;;;19.96;55.64;98387.34;5054742;28;20485;-66
2021/07/21 02:17:54;;;;;;;14.38;4.55;;;;;;;20.19;55.12;98391.34;5054278;28;20052;-67
2021/07/21 02:20:25;;;;;;;9.98;4.55;;;;;;;20.34;54.15;98384.59;5070962;28;20526;-68
2021/07/21 02:22:55;;;;;;;8.23;4.15;;;;;;;20.72;53.33;98386.44;5053675;28;20574;-69
2021/07/21 02:25:48;;;;;;;7.15;4.35;;;;;;;21.12;52.41;98387.84;5068854;28;20091;-68
2021/07/21 02:28:19;;;;;;;6.72;4.32;;;;;;;21.30;51.75;98390.06;5071207;28;20546;-68
2021/07/21 02:30:53;;;;;;;8.13;4.80;;;;;;;21.41;51.11;98389.66;5021202;28;20040;-68
2021/07/21 02:33:22;;;;;;;6.97;4.20;;;;;;;21.48;51.25;98392.63;5065558;28;20143;-68
2021/07/21 02:35:48;;;;;;;9.63;4.27;;;;;;;21.65;50.93;98397.00;5091638;28;20105;-67
2021/07/21 02:38:16;;;;;;;8.77;4.13;;;;;;;21.93;50.25;98394.47;5092179;28;20048;-68
2021/07/21 02:40:54;;;;;;;7.70;4.55;;;;;;;22.08;49.25;98385.69;5076798;28;20142;-67
2021/07/21 02:43:24;;;;;;;8.95;4.75;;;;;;;22.18;48.78;98396.09;5092497;28;20048;-68
2021/07/21 02:45:51;;;;;;;9.77;4.35;;;;;;;22.36;48.60;98393.94;5092244;28;20071;-68
2021/07/21 02:48:17;;;;;;;10.30;4.35;;;;;;;22.50;48.27;98385.47;5093553;28;20079;-68
2021/07/21 02:50:47;;;;;;;10.48;4.38;;;;;;;22.76;48.57;98395.88;5093508;28;20051;-69
2021/07/21 02:53:21;;;;;;;7.97;4.22;;;;;;;23.02;47.47;98394.69;5059015;28;20048;-68
2021/07/21 02:56:11;;;;;;;8.15;4.55;;;;;;;22.80;47.48;98402.19;5092010;28;20056;-68
2021/07/21 02:58:52;;;;;;;8.70;4.18;;;;;;;22.72;47.71;98410.41;5091784;28;20055;-67
2021/07/21 03:01:21;;;;;;;7.82;4.57;;;;;;;22.63;48.44;98400.53;5092199;28;20116;-68
2021/07/21 03:03:49;;;;;;;8.43;4.63;;;;;;;22.62;48.29;98409.75;5075400;28;20040;-68
2021/07/21 03:06:20;;;;;;;9.07;4.57;;;;;;;22.58;47.99;98406.16;5075588;28;20529;-68
2021/07/21 03:08:57;;;;;;;6.82;4.63;;;;;;;22.79;47.60;98403.28;5092356;28;20048;-68
2021/07/21 03:11:31;;;;;;;8.00;4.43;;;;;;;22.78;47.08;98414.44;5091833;28;20138;-67
2021/07/21 03:14:00;;;;;;;7.07;4.03;;;;;;;22.94;46.68;98412.59;5074840;28;20409;-69
2021/07/21 03:16:30;;;;;;;9.10;4.15;;;;;;;23.23;45.79;98413.41;5074679;28;20092;-68
2021/07/21 03:19:00;;;;;;;8.50;4.57;;;;;;;23.55;45.51;98416.97;5091561;28;20501;-69
2021/07/21 03:21:34;;;;;;;8.63;4.22;;;;;;;23.65;45.10;98402.94;5075755;28;20044;-68
2021/07/21 03:24:15;;;;;;;7.07;4.50;;;;;;;23.77;44.60;98411.00;5091563;28;20047;-68
2021/07/21 03:26:41;;;;;;;9.23;4.80;;;;;;;23.97;44.39;98405.66;5092980;28;20079;-68
2021/07/21 03:29:12;;;;;;;5.15;4.35;;;;;;;24.05;43.98;98414.75;5092972;28;20044;-68
2021/07/21 03:31:39;;;;;;;8.73;4.80;;;;;;;24.05;43.68;98412.06;5074810;28;20248;-68
2021/07/21 03:34:09;;;;;;;9.23;4.43;;;;;;;24.09;43.61;98407.50;5074819;28;20568;-68
2021/07/21 03:36:47;;;;;;;7.97;4.05;;;;;;;23.93;43.89;98419.13;5075624;28;20141;-69
2021/07/21 03:39:56;;;;;;;7.90;4.30;;;;;;;23.97;43.93;98422.72;5001829;28;20404;-67
2021/07/21 03:42:54;;;;;;;7.72;4.38;;;;;;;24.28;43.08;98418.41;4954981;28;20047;-68
2021/07/21 03:45:29;;;;;;;8.27;4.40;;;;;;;24.26;42.75;98426.88;5012629;28;20095;-66
2021/07/21 03:47:57;;;;;;;8.70;4.60;;;;;;;23.94;43.59;98433.44;5049570;28;20057;-68
2021/07/21 03:50:30;;;;;;;6.38;4.28;;;;;;;23.34;45.31;98428.00;5017553;28;20526;-69
2021/07/21 03:52:59;;;;;;;5.43;3.92;;;;;;;22.95;46.07;98433.13;5049482;28;20056;-71
2021/07/21 03:55:30;;;;;;;7.15;4.35;;;;;;;22.37;48.02;98422.50;5049566;28;20095;-68
2021/07/21 03:58:04;;;;;;;7.22;4.70;;;;;;;22.10;48.65;98421.25;5049308;28;20056;-68
2021/07/21 04:00:55;;;;;;;6.82;4.22;;;;;;;22.02;48.63;98418.66;5049257;28;20175;-67
2021/07/21 04:03:28;;;;;;;8.45;4.30;;;;;;;22.09;48.51;98416.16;5049260;28;20053;-68
2021/07/21 04:06:02;;;;;;;6.15;4.30;;;;;;;22.09;48.68;98414.28;5049354;28;20056;-67
2021/07/21 04:08:42;;;;;;;7.60;4.32;;;;;;;22.30;48.34;98421.50;5049278;28;20555;-68
2021/07/21 04:11:12;;;;;;;8.63;4.53;;;;;;;22.28;48.28;98410.25;5049063;28;20052;-68
2021/07/21 04:13:40;;;;;;;7.35;4.32;;;;;;;22.32;48.86;98411.13;5061546;28;20529;-68
2021/07/21 04:16:17;;;;;;;6.47;4.03;;;;;;;22.51;48.32;98416.75;5090449;28;20051;-69
2021/07/21 04:18:43;;;;;;;8.27;4.40;;;;;;;22.72;47.71;98416.59;5090324;28;20070;-69
2021/07/21 04:21:11;;;;;;;5.90;4.07;;;;;;;22.58;47.89;98408.84;5073494;28;20221;-68
2021/07/21 04:23:40;;;;;;;5.78;4.20;;;;;;;22.82;48.08;98405.31;5091300;28;20028;-67
2021/07/21 04:26:10;;;;;;;7.03;3.60;;;;;;;23.02;46.82;98408.22;5089887;28;20126;-69
2021/07/21 04:28:39;;;;;;;5.65;3.78;;;;;;;23.23;46.80;98408.00;5057299;28;20040;-67
2021/07/21 04:31:06;;;;;;;14.57;4.22;;;;;;;23.54;45.99;98407.28;5090375;28;20078;-67
2021/07/21 04:33:35;;;;;;;6.78;3.78;;;;;;;23.79;45.99;98411.44;5091442;28;20044;-67
2021/07/21 04:36:03;;;;;;;6.28;3.90;;;;;;;23.79;44.24;98408.72;5073538;28;20072;-67
2021/07/21 04:38:31;;;;;;;7.85;3.50;;;;;;;23.61;45.01;98407.47;5091390;28;20529;-67
2021/07/21 04:41:08;;;;;;;5.45;3.45;;;;;;;23.56;45.17;98410.44;5090215;28;20528;-67
2021/07/21 04:43:54;;;;;;;6.40;4.32;;;;;;;23.14;46.59;98410.84;5075472;28;20044;-67
2021/07/21 04:46:33;;;;;;;6.57;3.88;;;;;;;23.01;46.18;98407.44;5089710;28;20098;-67
2021/07/21 04:49:04;;;;;;;6.97;3.80;;;;;;;23.07;46.96;98416.84;5090113;28;20085;-67
2021/07/21 04:51:31;;;;;;;4.78;3.80;;;;;;;23.17;46.60;98417.50;5090179;28;20135;-67
2021/07/21 04:54:05;;;;;;;6.70;3.25;;;;;;;23.26;45.96;98424.31;5090084;28;20046;-63
2021/07/21 04:56:36;;;;;;;6.38;3.80;;;;;;;23.24;46.09;98410.38;5089798;28;20060;-63
2021/07/21 04:59:03;;;;;;;6.70;3.45;;;;;;;23.27;46.47;98409.69;5073076;28;20052;-67
2021/07/21 05:01:30;;;;;;;4.15;3.20;;;;;;;23.14;46.06;98413.56;5089950;28;20044;-67
2021/07/21 05:03:57;;;;;;;4.53;3.65;;;;;;;23.04;46.69;98416.75;5089905;28;20036;-66
2021/07/21 05:06:41;;;;;;;5.07;3.53;;;;;;;22.95;46.93;98425.00;5091509;28;20046;-66
2021/07/21 05:09:07;;;;;;;3.70;3.10;;;;;;;22.86;46.29;98427.81;5091434;28;20052;-68
2021/07/21 05:11:43;;;;;;;7.10;3.70;;;;;;;22.77;47.70;98423.69;5089783;28;20044;-67
2021/07/21 05:14:09;;;;;;;4.90;3.30;;;;;;;22.61;46.42;98423.59;5072973;28;20040;-65
2021/07/21 05:16:55;;;;;;;6.32;3.45;;;;;;;22.69;47.05;98430.78;5068203;28;20048;-63
2021/07/21 05:19:22;;;;;;;6.80;3.85;;;;;;;22.90;46.33;98433.31;5019205;28;20051;-66
2021/07/21 05:21:52;;;;;;;5.15;3.20;;;;;;;22.99;45.77;98435.91;5051643;28;20433;-66
2021/07/21 05:24:22;;;;;;;5.82;3.70;;;;;;;22.95;45.65;98425.00;5051700;28;20616;-67
2021/07/21 05:26:48;;;;;;;3.85;3.35;;;;;;;23.15;45.90;98433.25;5051316;28;20105;-66
2021/07/21 05:29:18;;;;;;;7.65;4.03;;;;;;;23.22;45.39;98431.56;5068037;28;20464;-67
2021/07/21 05:31:44;;;;;;;4.20;3.40;;;;;;;23.11;45.75;98428.53;5051575;28;20067;-66
2021/07/21 05:34:25;;;;;;;5.18;3.45;;;;;;;23.03;45.56;98426.78;5068356;28;20531;-70
2021/07/21 05:37:04;;;;;;;5.90;3.72;;;;;;;23.03;46.01;98439.50;5068160;28;20140;-70
2021/07/21 05:39:53;;;;;;;5.57;3.70;;;;;;;22.84;45.71;98442.78;5054516;28;20076;-69
2021/07/21 05:42:21;;;;;;;5.75;3.55;;;;;;;22.88;46.51;98436.38;5035176;28;20291;-68
2021/07/21 05:44:48;;;;;;;6.85;3.60;;;;;;;22.95;45.77;98438.53;5051526;28;20041;-68
2021/07/21 05:47:14;;;;;;;5.38;3.85;;;;;;;22.92;45.94;98430.28;5072782;28;20556;-70
2021/07/21 05:49:41;;;;;;;3.78;2.92;;;;;;;22.95;45.84;98432.34;5089342;28;20059;-69
2021/07/21 05:52:21;;;;;;;5.63;3.17;;;;;;;23.00;44.95;98434.78;5074691;28;20052;-67
2021/07/21 05:54:47;;;;;;;7.75;3.40;;;;;;;23.11;45.12;98433.16;5090932;28;20036;-69
2021/07/21 05:57:16;;;;;;;7.28;3.28;;;;;;;23.23;44.92;98429.63;5091506;28;20047;-65
2021/07/21 05:59:50;;;;;;;4.85;3.13;;;;;;;23.00;45.62;98418.56;5092838;28;20040;-70
2021/07/21 06:02:19;;;;;;;5.10;3.20;;;;;;;23.13;45.06;98426.28;5034734;28;20041;-69
2021/07/21 06:04:46;;;;;;;4.43;3.28;;;;;;;23.34;44.62;98425.31;5056121;28;20140;-70
2021/07/21 06:07:48;;;;;;;5.78;3.17;;;;;;;23.41;44.10;98425.50;5031200;28;20073;-69
2021/07/21 06:10:32;;;;;;;2.88;2.53;;;;;;;23.45;43.18;98415.56;5068857;28;20131;-67
2021/07/21 06:13:03;;;;;;;4.78;2.80;;;;;;;23.51;42.99;98416.09;5056427;28;20044;-72
2021/07/21 06:15:30;;;;;;;5.65;3.38;;;;;;;23.56;43.30;98411.22;5073829;28;20055;-70
2021/07/21 06:17:59;;;;;;;6.78;3.42;;;;;;;23.43;43.79;98414.34;5072725;28;20051;-70
2021/07/21 06:20:45;;;;;;;3.72;2.80;;;;;;;23.45;43.10;98417.50;5072087;28;20182;-71
2021/07/21 06:23:11;;;;;;;5.90;2.85;;;;;;;23.25;43.60;98425.47;5073335;28;20727;-73
2021/07/21 06:25:43;;;;;;;3.83;2.72;;;;;;;23.20;44.17;98416.81;5072129;28;20524;-73
2021/07/21 06:28:24;;;;;;;6.97;3.00;;;;;;;23.10;43.45;98416.16;5042714;28;20441;-72
2021/07/21 06:30:51;;;;;;;3.30;2.90;;;;;;;23.04;43.98;98422.16;5066895;28;20513;-72
2021/07/21 06:33:24;;;;;;;3.90;3.00;;;;;;;23.19;43.69;98420.66;5080826;28;20040;-72
2021/07/21 06:35:54;;;;;;;5.00;3.13;;;;;;;23.34;43.29;98417.97;5091234;28;20063;-70
2021/07/21 06:38:28;;;;;;;6.15;3.10;;;;;;;23.42;43.01;98404.66;5073045;28;20040;-72
2021/07/21 06:41:29;;;;;;;5.90;3.40;;;;;;;23.39;42.75;98403.44;5036790;28;20106;-71
2021/07/21 06:43:59;;;;;;;4.65;3.08;;;;;;;23.44;42.16;98416.72;5075394;28;20051;-70
2021/07/21 06:46:35;;;;;;;5.35;2.92;;;;;;;23.38;42.59;98417.28;5088594;28;20085;-71
2021/07/21 06:49:16;;;;;;;10.18;3.13;;;;;;;23.20;42.91;98414.88;5089726;28;20036;-71
2021/07/21 06:51:42;;;;;;;3.40;2.60;;;;;;;23.23;42.56;98411.50;5074370;28;20078;-71
2021/07/21 06:54:10;;;;;;;4.28;3.08;;;;;;;23.21;42.56;98402.19;5090611;28;20510;-71
2021/07/21 06:56:55;;;;;;;4.22;2.83;;;;;;;23.24;42.55;98402.28;5089791;28;20046;-69
2021/07/21 06:59:59;;;;;;;4.47;2.63;;;;;;;23.29;42.05;98403.91;5028547;28;20076;-70
2021/07/21 07:02:46;;;;;;;5.88;2.40;;;;;;;23.26;42.35;98405.41;4990365;28;20060;-70
2021/07/21 07:05:30;;;;;;;3.17;2.40;;;;;;;23.31;42.04;98398.97;5018812;28;20434;-70
2021/07/21 07:08:22;;;;;;;4.10;2.78;;;;;;;23.24;43.95;98401.50;5052803;28;20496;-70
2021/07/21 07:11:07;;;;;;;4.68;3.15;;;;;;;23.32;42.85;98401.34;5067277;28;20094;-70
2021/07/21 07:13:33;;;;;;;5.95;3.13;;;;;;;23.20;43.50;98400.59;5068321;28;20057;-70
2021/07/21 07:16:00;;;;;;;4.68;2.58;;;;;;;23.39;42.92;98399.94;5067973;28;20117;-69
2021/07/21 07:18:27;;;;;;;4.13;2.75;;;;;;;23.55;42.10;98389.94;5034450;28;20109;-69
2021/07/21 07:20:54;;;;;;;3.05;2.60;;;;;;;23.66;42.55;98392.91;5016073;28;20076;-70
2021/07/21 07:23:20;;;;;;;3.83;2.80;;;;;;;23.70;42.63;98397.28;5065959;28;20052;-69
2021/07/21 07:25:46;;;;;;;4.68;2.75;;;;;;;23.86;41.95;98402.72;5064546;28;20521;-69
2021/07/21 07:28:12;;;;;;;5.70;2.72;;;;;;;23.93;41.86;98402.88;5065843;28;20044;-70
2021/07/21 07:30:38;;;;;;;5.43;2.88;;;;;;;23.96;41.64;98396.78;5049062;28;20056;-70
2021/07/21 07:33:04;;;;;;;3.25;2.70;;;;;;;23.97;42.04;98392.13;5070131;28;20048;-69
2021/07/21 07:35:30;;;;;;;2.95;2.65;;;;;;;24.07;41.90;98391.63;5088316;28;20048;-70
2021/07/21 07:37:55;;;;;;;5.00;3.20;;;;;;;24.24;42.12;98396.66;5088700;28;20089;-71
2021/07/21 07:40:21;;;;;;;5.55;3.00;;;;;;;24.36;41.65;98403.13;5088127;28;20056;-71
2021/07/21 07:42:47;;;;;;;5.15;3.05;;;;;;;24.27;41.08;98403.31;5088008;28;20036;-71
2021/07/21 07:45:14;;;;;;;3.97;2.50;;;;;;;24.06;40.99;98403.59;5086627;28;20525;-72
2021/07/21 07:47:40;;;;;;;5.45;3.13;;;;;;;23.87;40.32;98396.16;5087292;28;20520;-71
2021/07/21 07:50:08;;;;;;;7.13;2.97;;;;;;;23.93;39.98;98400.19;5087129;28;20047;-71
2021/07/21 07:52:34;;;;;;;5.88;2.92;;;;;;;23.73;40.44;98393.09;5088648;28;20044;-68
2021/07/21 07:55:01;;;;;;;2.55;2.33;;;;;;;23.73;40.49;98398.50;5071289;28;20552;-68
2021/07/21 07:57:29;;;;;;;7.72;2.72;;;;;;;23.91;40.23;98393.53;5089289;28;20056;-68
2021/07/21 07:59:54;;;;;;;4.13;2.42;;;;;;;23.93;40.59;98391.28;5070360;28;20089;-71
2021/07/21 08:02:20;;;;;;;5.70;2.60;;;;;;;23.95;40.15;98395.22;5086538;28;20047;-69
2021/07/21 08:04:46;;;;;;;4.13;2.83;;;;;;;23.88;40.52;98394.25;5069255;28;20036;-69
2021/07/21 08:07:12;;;;;;;2.95;2.42;;;;;;;23.94;40.45;98400.97;5087036;28;20071;-69
2021/07/21 08:09:38;;;;;;;3.60;2.83;;;;;;;23.94;40.36;98401.78;5085934;28;20433;-68
2021/07/21 08:12:04;;;;;;;3.92;2.50;;;;;;;23.94;39.92;98393.66;5088458;28;20050;-70
2021/07/21 08:14:30;;;;;;;5.85;2.70;;;;;;;24.02;39.97;98391.88;5087899;28;20590;-70
2021/07/21 08:16:56;;;;;;;4.55;2.95;;;;;;;23.91;40.61;98391.63;5089910;28;20138;-69
2021/07/21 08:19:23;;;;;;;2.97;2.67;;;;;;;23.83;40.65;98389.13;5088756;28;20131;-69
2021/07/21 08:21:50;;;;;;;4.70;3.53;;;;;;;23.78;40.83;98385.50;5089437;28;20147;-70
2021/07/21 08:24:17;;;;;;;3.13;2.58;;;;;;;23.69;41.18;98384.09;5086520;28;20075;-68
2021/07/21 08:26:43;;;;;;;3.63;2.63;;;;;;;23.66;41.49;98388.28;5088516;28;20354;-69
2021/07/21 08:29:09;;;;;;;3.47;3.13;;;;;;;23.57;41.20;98395.78;5087509;28;20043;-71
2021/07/21 08:31:35;;;;;;;3.35;2.40;;;;;;;23.50;41.03;98390.16;5088762;28;20046;-70
2021/07/21 08:34:02;;;;;;;3.38;2.80;;;;;;;23.54;41.94;98394.56;5072272;28;20040;-68
2021/07/21 08:36:29;;;;;;;4.50;2.65;;;;;;;23.62;41.31;98397.44;5072176;28;20051;-70
2021/07/21 08:38:56;;;;;;;3.95;2.70;;;;;;;23.72;41.61;98386.13;5088268;28;20040;-69
2021/07/21 08:41:23;;;;;;;4.28;2.47;;;;;;;23.70;41.43;98386.47;5089360;28;20536;-69
2021/07/21 08:43:48;;;;;;;8.95;2.50;;;;;;;23.79;40.92;98384.38;5089220;28;20483;-69
2021/07/21 08:46:14;;;;;;;3.90;2.70;;;;;;;23.98;41.23;98380.19;5087510;28;20064;-68
2021/07/21 08:48:41;;;;;;;4.15;2.83;;;;;;;24.09;40.37;98383.94;5089139;28;20075;-68
2021/07/21 08:51:10;;;;;;;4.68;2.65;;;;;;;24.13;40.14;98384.81;5090096;28;20434;-70
2021/07/21 08:53:37;;;;;;;4.78;2.78;;;;;;;24.03;40.79;98380.72;5087400;28;20052;-69
2021/07/21 08:56:04;;;;;;;3.88;2.50;;;;;;;24.07;40.17;98380.00;5088023;28;20036;-70
2021/07/21 08:58:29;;;;;;;4.32;2.60;;;;;;;24.10;39.94;98385.50;5085970;28;20047;-70
2021/07/21 09:00:56;;;;;;;3.20;2.85;;;;;;;24.24;40.66;98379.63;5086295;28;20092;-68
2021/07/21 09:03:22;;;;;;;4.47;2.50;;;;;;;24.34;40.03;98378.31;5071712;28;20044;-69
2021/07/21 09:05:50;;;;;;;7.22;4.97;;;;;;;24.31;38.83;98374.38;5087571;28;20044;-69
2021/07/21 09:08:17;;;;;;;4.40;2.70;;;;;;;24.37;38.66;98385.72;5087514;28;20135;-70
2021/07/21 09:10:48;;;;;;;3.97;2.85;;;;;;;24.48;38.19;98375.94;5087976;28;20032;-70
2021/07/21 09:13:14;;;;;;;3.05;2.65;;;;;;;24.54;38.95;98379.16;5089830;28;20089;-68
2021/07/21 09:15:43;;;;;;;3.55;2.83;;;;;;;24.67;38.96;98378.66;5070534;28;20040;-70
2021/07/21 09:18:10;;;;;;;5.25;2.78;;;;;;;24.91;37.85;98379.50;5088778;28;20090;-70
2021/07/21 09:20:39;;;;;;;3.75;2.78;;;;;;;25.02;38.27;98369.66;5088633;28;20082;-69
2021/07/21 09:23:05;;;;;;;5.18;2.70;;;;;;;25.13;37.98;98364.47;5089164;28;20097;-69
2021/07/21 09:25:33;;;;;;;4.30;2.80;;;;;;;25.12;37.57;98354.78;5089532;28;20485;-70
2021/07/21 09:28:01;;;;;;;3.33;2.83;;;;;;;25.21;37.58;98358.06;5088579;28;20048;-70
2021/07/21 09:30:34;;;;;;;4.20;2.92;;;;;;;25.33;38.31;98348.97;5072281;28;20123;-70
2021/07/21 09:33:07;;;;;;;2.90;2.60;;;;;;;25.43;37.03;98348.38;5094313;28;20051;-69
2021/07/21 09:35:40;;;;;;;3.97;2.78;;;;;;;25.26;36.69;98359.69;5093945;28;20047;-70
2021/07/21 09:38:08;;;;;;;4.13;2.80;;;;;;;25.31;35.76;98352.03;5092853;28;20094;-70
2021/07/21 09:40:36;;;;;;;4.50;3.05;;;;;;;25.28;35.32;98350.03;5092714;28;20044;-69
2021/07/21 09:43:03;;;;;;;3.63;2.50;;;;;;;25.23;35.21;98346.84;5092905;28;20036;-68
2021/07/21 09:45:36;;;;;;;3.17;2.72;;;;;;;25.28;35.54;98341.13;5090951;28;20044;-69
2021/07/21 09:48:02;;;;;;;3.95;3.03;;;;;;;25.07;36.71;98339.56;5093501;28;20040;-70
2021/07/21 09:50:29;;;;;;;5.43;2.80;;;;;;;25.05;37.08;98339.13;5093314;28;20042;-68
2021/07/21 09:53:04;;;;;;;4.95;3.28;;;;;;;25.09;37.23;98333.78;5091894;28;20117;-69
2021/07/21 09:55:31;;;;;;;3.75;2.63;;;;;;;25.10;37.06;98330.72;5093377;28;20051;-69
2021/07/21 09:58:11;;;;;;;3.10;2.80;;;;;;;25.17;36.79;98332.78;5091272;28;20555;-70
2021/07/21 10:00:39;;;;;;;4.32;3.00;;;;;;;25.08;35.42;98332.22;5091667;28;20036;-70
2021/07/21 10:03:26;;;;;;;6.53;3.13;;;;;;;24.95;35.53;98330.81;5091996;28;20048;-70
2021/07/21 10:06:07;;;;;;;3.63;3.08;;;;;;;24.85;36.08;98322.09;5090988;28;20047;-69
2021/07/21 10:08:52;;;;;;;7.72;2.85;;;;;;;24.88;36.32;98323.31;5055298;28;20522;-69
2021/07/21 10:11:25;;;;;;;3.25;2.60;;;;;;;24.83;35.89;98316.28;5089787;28;20047;-75
2021/07/21 10:13:57;;;;;;;6.07;3.00;;;;;;;24.74;36.34;98315.72;5088709;28;20059;-71
2021/07/21 10:16:50;;;;;;;3.97;2.78;;;;;;;24.91;35.79;98309.03;5071610;28;20119;-69
2021/07/21 10:19:21;;;;;;;4.68;3.17;;;;;;;25.09;35.62;98307.47;5089292;28;20056;-70
2021/07/21 10:21:55;;;;;;;3.05;2.80;;;;;;;25.25;35.58;98299.25;5088890;28;20513;-75
2021/07/21 10:24:22;;;;;;;3.03;2.80;;;;;;;25.11;35.09;98307.09;5089382;28;20563;-78
2021/07/21 10:26:50;;;;;;;7.40;3.13;;;;;;;24.94;35.77;98305.59;5071901;28;20504;-74
2021/07/21 10:29:17;;;;;;;5.32;3.05;;;;;;;24.86;35.69;98302.00;5087652;28;20069;-71
2021/07/21 10:31:43;;;;;;;8.55;5.35;;;;;;;24.73;35.89;98299.78;5088100;28;20501;-70
2021/07/21 10:34:10;;;;;;;5.85;2.70;;;;;;;24.78;34.99;98296.81;5087622;28;20091;-71
2021/07/21 10:36:36;;;;;;;3.85;3.10;;;;;;;24.85;33.98;98307.75;5088990;28;20044;-71
2021/07/21 10:39:08;;;;;;;3.53;2.95;;;;;;;24.85;33.14;98288.78;5089947;28;20492;-73
2021/07/21 10:41:36;;;;;;;4.28;2.80;;;;;;;24.89;33.52;98284.25;5073217;28;20131;-70
2021/07/21 10:44:08;;;;;;;3.88;2.88;;;;;;;24.86;34.42;98293.09;5030222;28;20446;-70
2021/07/21 10:46:36;;;;;;;2.83;2.33;;;;;;;24.95;34.47;98293.66;5088276;28;20072;-70
2021/07/21 10:55:03;;;;;;;4.05;2.70;;;;;;;25.23;32.40;98284.47;5090317;28;20405;-70
2021/07/21 11:00:19;;;;;;;5.07;2.60;;;;;;;24.84;34.16;98295.38;5089037;28;20143;-69
2021/07/21 11:02:48;;;;;;;2.72;2.40;;;;;;;24.84;33.43;98298.06;5090262;28;20051;-72
2021/07/21 11:05:36;;;;;;;6.43;2.50;;;;;;;24.70;34.49;98296.66;5055653;28;20385;-72
2021/07/21 11:08:04;;;;;;;3.67;2.17;;;;;;;24.68;32.97;98279.97;5090708;28;20043;-69
2021/07/21 11:10:37;;;;;;;2.78;2.33;;;;;;;24.55;32.25;98294.03;5087643;28;20444;-69
2021/07/21 11:13:09;;;;;;;2.60;2.33;;;;;;;24.45;32.46;98290.75;5090302;28;20101;-71
2021/07/21 11:15:44;;;;;;;7.30;2.60;;;;;;;24.53;32.67;98291.69;5087981;28;20048;-69
2021/07/21 11:18:41;;;;;;;3.28;2.70;;;;;;;24.69;33.17;98288.88;5088250;28;20417;-72
2021/07/21 11:21:14;;;;;;;4.43;2.80;;;;;;;24.82;33.03;98294.94;5088290;28;20099;-70
2021/07/21 11:23:45;;;;;;;3.30;2.33;;;;;;;24.84;33.16;98298.06;5088898;28;20501;-71
2021/07/21 11:26:27;;;;;;;4.47;2.47;;;;;;;24.87;32.80;98287.28;5090479;28;20059;-71
2021/07/21 11:28:53;;;;;;;4.60;2.65;;;;;;;24.97;33.03;98290.56;5090658;28;20127;-71
2021/07/21 11:31:19;;;;;;;4.57;2.53;;;;;;;25.11;33.26;98290.81;5090709;28;20185;-71
2021/07/21 11:33:52;;;;;;;4.45;2.42;;;;;;;25.24;33.44;98292.25;5071166;28;20072;-71
2021/07/21 11:36:43;;;;;;;3.38;2.50;;;;;;;25.18;33.40;98284.75;5090656;28;20067;-71
2021/07/21 11:39:35;;;;;;;4.35;3.00;;;;;;;25.13;33.20;98297.47;5072703;28;20051;-71
2021/07/21 11:42:07;;;;;;;2.85;2.55;;;;;;;25.08;33.17;98294.25;5087865;28;20546;-73
2021/07/21 11:44:36;;;;;;;2.80;2.50;;;;;;;24.98;33.43;98290.22;5069380;28;20090;-69
2021/07/21 11:47:05;;;;;;;5.47;2.77;;;;;;;24.87;34.15;98302.78;5088105;28;20460;-72
2021/07/21 11:49:33;;;;;;;7.05;2.63;;;;;;;24.75;35.00;98298.28;5087397;28;20056;-71
2021/07/21 11:52:01;;;;;;;3.08;2.67;;;;;;;24.89;34.17;98297.78;5089071;28;20040;-72
2021/07/21 11:54:30;;;;;;;4.85;2.63;;;;;;;24.89;34.98;98295.88;5088217;28;20631;-71
2021/07/21 11:57:00;;;;;;;4.03;2.88;;;;;;;25.07;34.42;98296.19;5089490;28;20044;-70
2021/07/21 11:59:27;;;;;;;3.25;2.63;;;;;;;25.23;33.63;98289.88;5090832;28;20046;-73
2021/07/21 12:02:07;;;;;;;3.80;2.60;;;;;;;25.18;33.70;98291.00;5089256;28;20069;-70
2021/07/21 12:04:33;;;;;;;3.45;2.83;;;;;;;25.20;33.47;98296.03;5085661;28;20036;-69
2021/07/21 12:06:59;;;;;;;4.25;2.53;;;;;;;25.25;32.35;98295.75;5087829;28;20571;-70
2021/07/21 12:09:30;;;;;;;4.07;2.70;;;;;;;25.32;32.85;98293.16;5086683;28;20072;-69